createdAt,value
2019-04-23T00:01:49.281Z,98663.08
2019-04-23T00:04:20.423Z,98652.30
2019-04-23T00:06:53.750Z,98658.21
2019-04-23T00:09:15.615Z,98656.17
2019-04-23T00:11:40.556Z,98656.59
2019-04-23T00:14:05.607Z,98666.38
2019-04-23T00:16:29.832Z,98652.32
2019-04-23T00:18:49.488Z,98654.42
2019-04-23T00:21:39.005Z,98654.86
2019-04-23T00:24:12.057Z,98655.64
2019-04-23T00:26:32.720Z,98656.22
2019-04-23T00:31:24.700Z,98650.33
2019-04-23T00:33:45.766Z,98651.68
2019-04-23T00:36:10.775Z,98653.59
2019-04-23T00:38:38.962Z,98651.69
2019-04-23T00:41:05.710Z,98650.92
2019-04-23T00:43:32.793Z,98637.14
2019-04-23T00:45:57.674Z,98644.81
2019-04-23T00:48:52.601Z,98651.22
2019-04-23T00:55:47.842Z,98637.20
2019-04-23T01:00:44.929Z,98633.77
2019-04-23T01:03:05.837Z,98630.84
2019-04-23T01:05:30.755Z,98633.39
2019-04-23T01:07:58.110Z,98623.21
2019-04-23T01:10:34.891Z,98626.77
2019-04-23T01:12:59.679Z,98623.94
2019-04-23T01:15:34.101Z,98625.16
2019-04-23T01:18:08.122Z,98631.66
2019-04-23T01:20:28.463Z,98633.09
2019-04-23T01:22:37.886Z,98634.41
2019-04-23T01:25:21.212Z,98637.45
2019-04-23T01:28:23.113Z,98638.33
2019-04-23T01:30:41.111Z,98637.17
2019-04-23T01:33:09.200Z,98640.17
2019-04-23T01:37:58.071Z,98632.81
2019-04-23T01:40:34.755Z,98643.88
2019-04-23T01:42:56.067Z,98643.20
2019-04-23T01:47:50.152Z,98633.06
2019-04-23T01:52:45.540Z,98635.29
2019-04-23T01:55:09.650Z,98631.20
2019-04-23T01:57:37.769Z,98636.14
2019-04-23T02:00:03.291Z,98632.81
2019-04-23T02:02:38.151Z,98629.94
2019-04-23T02:05:01.385Z,98636.99
2019-04-23T02:07:29.696Z,98638.59
2019-04-23T02:09:48.526Z,98638.30
2019-04-23T02:12:18.818Z,98637.02
2019-04-23T02:14:43.560Z,98633.78
2019-04-23T02:17:13.964Z,98620.03
2019-04-23T02:19:38.519Z,98622.14
2019-04-23T02:22:21.925Z,98616.56
2019-04-23T02:24:41.400Z,98623.70
2019-04-23T02:27:05.650Z,98616.36
2019-04-23T02:32:08.851Z,98619.09
2019-04-23T02:34:51.954Z,98616.06
2019-04-23T02:36:57.705Z,98608.52
2019-04-23T02:39:26.509Z,98616.98
2019-04-23T02:41:54.456Z,98614.67
2019-04-23T02:44:16.610Z,98615.50
2019-04-23T02:46:40.880Z,98609.06
2019-04-23T02:49:20.555Z,98613.48
2019-04-23T02:51:39.571Z,98608.97
2019-04-23T02:59:05.829Z,98609.47
2019-04-23T03:01:31.777Z,98605.16
2019-04-23T03:03:59.830Z,98599.84
2019-04-23T03:06:14.948Z,98593.77
2019-04-23T03:08:57.258Z,98599.94
2019-04-23T03:11:23.632Z,98593.91
2019-04-23T03:13:53.943Z,98605.87
2019-04-23T03:16:47.679Z,98599.64
2019-04-23T03:21:31.263Z,98607.09
2019-04-23T03:24:28.560Z,98599.88
2019-04-23T03:26:42.138Z,98610.19
2019-04-23T03:28:57.639Z,98605.98
2019-04-23T03:41:15.811Z,98585.28
2019-04-23T03:48:34.021Z,98584.69
2019-04-23T03:50:43.646Z,98581.97
2019-04-23T03:53:34.698Z,98587.51
2019-04-23T03:58:21.431Z,98570.03
2019-04-23T04:08:16.040Z,98571.13
2019-04-23T04:10:25.467Z,98579.96
2019-04-23T04:15:48.946Z,98570.13
2019-04-23T04:27:45.800Z,98570.63
2019-04-23T04:32:41.388Z,98571.73
2019-04-23T04:44:47.794Z,98546.54
2019-04-23T04:47:09.675Z,98552.48
2019-04-23T04:49:48.661Z,98559.80
2019-04-23T04:52:26.781Z,98558.30
2019-04-23T04:59:24.566Z,98541.13
2019-04-23T05:04:19.863Z,98541.73
2019-04-23T05:06:51.271Z,98539.61
2019-04-23T05:09:11.405Z,98547.84
2019-04-23T05:11:46.145Z,98543.63
2019-04-23T05:16:29.282Z,98548.44
2019-04-23T05:21:36.939Z,98539.03
2019-04-23T05:23:54.426Z,98541.73
2019-04-23T05:26:25.056Z,98535.39
2019-04-23T05:28:55.551Z,98534.81
2019-04-23T05:31:17.211Z,98534.72
2019-04-23T05:33:41.494Z,98537.72
2019-04-23T05:38:43.193Z,98537.81
2019-04-23T05:43:26.158Z,98539.22
2019-04-23T05:45:57.381Z,98543.03
2019-04-23T05:53:11.539Z,98542.92
2019-04-23T05:55:45.932Z,98537.40
2019-04-23T05:58:15.094Z,98536.98
2019-04-23T06:00:39.911Z,98543.92
2019-04-23T06:03:08.093Z,98539.15
2019-04-23T06:05:34.135Z,98539.27
2019-04-23T06:07:55.224Z,98536.20
2019-04-23T06:10:26.970Z,98542.27
2019-04-23T06:12:52.286Z,98536.08
2019-04-23T06:15:22.006Z,98534.69
2019-04-23T06:17:47.492Z,98532.83
2019-04-23T06:20:09.986Z,98535.87
2019-04-23T06:25:35.172Z,98532.02
2019-04-23T06:27:45.999Z,98527.61
2019-04-23T06:29:57.484Z,98534.27
2019-04-23T06:32:25.856Z,98524.11
2019-04-23T06:37:24.720Z,98530.16
2019-04-23T06:39:50.099Z,98531.33
2019-04-23T06:42:09.596Z,98525.72
2019-04-23T06:44:44.982Z,98517.16
2019-04-23T06:47:06.934Z,98520.05
2019-04-23T06:49:37.347Z,98523.11
2019-04-23T06:52:15.160Z,98508.88
2019-04-23T06:54:36.520Z,98516.54
2019-04-23T06:57:09.081Z,98511.60
2019-04-23T06:59:29.328Z,98513.77
2019-04-23T07:04:17.911Z,98504.24
2019-04-23T07:06:48.757Z,98498.87
2019-04-23T07:09:10.553Z,98499.05
2019-04-23T07:13:58.487Z,98491.64
2019-04-23T07:16:27.822Z,98494.00
2019-04-23T07:19:19.873Z,98488.50
2019-04-23T07:21:23.583Z,98487.62
2019-04-23T07:26:33.294Z,98481.00
2019-04-23T07:28:50.116Z,98474.77
2019-04-23T07:31:26.318Z,98469.24
2019-04-23T07:33:47.588Z,98469.61
2019-04-23T07:36:15.624Z,98470.34
2019-04-23T07:41:52.722Z,98462.13
2019-04-23T07:47:16.197Z,98459.69
2019-04-23T07:49:30.739Z,98459.84
2019-04-23T07:52:02.979Z,98462.25
2019-04-23T07:54:32.566Z,98454.08
2019-04-23T07:56:54.066Z,98459.45
2019-04-23T07:59:20.743Z,98455.50
2019-04-23T08:01:39.156Z,98464.42
2019-04-23T08:04:14.356Z,98463.73
2019-04-23T08:06:39.998Z,98465.09
2019-04-23T08:09:02.320Z,98469.14
2019-04-23T08:23:57.314Z,98471.70
2019-04-23T08:26:48.177Z,98467.47
2019-04-23T08:29:14.028Z,98463.54
2019-04-23T08:34:16.780Z,98466.97
2019-04-23T08:36:35.813Z,98459.81
2019-04-23T08:38:58.675Z,98461.97
2019-04-23T08:44:16.906Z,98456.67
2019-04-23T08:46:35.548Z,98460.81
2019-04-23T08:49:01.848Z,98449.02
2019-04-23T08:51:32.404Z,98446.43
2019-04-23T08:53:40.781Z,98451.96
2019-04-23T08:56:11.934Z,98448.98
2019-04-23T08:58:41.473Z,98449.93
2019-04-23T09:01:13.691Z,98445.13
2019-04-23T09:03:31.271Z,98443.00
2019-04-23T09:05:57.651Z,98447.69
2019-04-23T09:08:27.284Z,98454.16
2019-04-23T09:11:07.644Z,98436.95
2019-04-23T09:15:49.781Z,98427.82
2019-04-23T09:18:16.419Z,98432.15
2019-04-23T09:20:39.401Z,98432.41
2019-04-23T09:23:01.915Z,98429.34
2019-04-23T09:25:42.282Z,98426.40
2019-04-23T09:27:59.387Z,98424.48
2019-04-23T09:33:06.493Z,98423.02
2019-04-23T09:35:36.363Z,98420.50
2019-04-23T09:38:11.624Z,98419.92
2019-04-23T09:43:48.544Z,98425.16
2019-04-23T09:46:18.006Z,98428.44
2019-04-23T09:48:50.970Z,98439.59
2019-04-23T09:51:13.578Z,98430.89
2019-04-23T09:53:34.403Z,98428.89
2019-04-23T09:56:01.108Z,98429.48
2019-04-23T09:58:21.887Z,98433.81
2019-04-23T10:01:19.597Z,98430.34
2019-04-23T10:03:25.448Z,98430.34
2019-04-23T10:05:49.049Z,98438.67
2019-04-23T10:08:18.545Z,98435.81
2019-04-23T10:10:32.510Z,98435.88
2019-04-23T10:13:00.173Z,98438.86
2019-04-23T10:15:32.412Z,98442.55
2019-04-23T10:17:54.116Z,98433.16
2019-04-23T10:20:20.640Z,98423.05
2019-04-23T10:22:46.312Z,98423.09
2019-04-23T10:25:12.986Z,98435.19
2019-04-23T10:27:41.236Z,98429.36
2019-04-23T10:30:07.949Z,98437.42
2019-04-23T10:32:33.539Z,98439.36
2019-04-23T10:35:10.152Z,98441.45
2019-04-23T10:37:39.429Z,98431.53
2019-04-23T10:39:56.676Z,98439.27
2019-04-23T10:42:21.799Z,98429.28
2019-04-23T10:45:08.162Z,98431.95
2019-04-23T10:47:54.298Z,98432.84
2019-04-23T10:50:26.045Z,98434.28
2019-04-23T10:53:04.518Z,98431.48
2019-04-23T10:55:32.235Z,98434.26
2019-04-23T10:57:36.069Z,98441.07
2019-04-23T11:00:09.490Z,98442.05
2019-04-23T11:05:11.783Z,98438.59
2019-04-23T11:07:38.393Z,98447.37
2019-04-23T11:10:03.319Z,98448.38
2019-04-23T11:12:43.652Z,98447.20
2019-04-23T11:15:23.347Z,98445.89
2019-04-23T11:17:47.944Z,98443.11
2019-04-23T11:20:15.158Z,98441.44
2019-04-23T11:24:59.158Z,98422.91
2019-04-23T11:27:28.116Z,98427.44
2019-04-23T11:30:05.704Z,98426.16
2019-04-23T11:32:42.907Z,98421.14
2019-04-23T11:35:04.347Z,98420.40
2019-04-23T11:37:23.117Z,98421.53
2019-04-23T11:44:49.545Z,98422.00
2019-04-23T11:47:08.295Z,98417.50
2019-04-23T11:49:44.840Z,98411.50
2019-04-23T11:52:05.582Z,98418.55
2019-04-23T11:54:24.187Z,98419.67
2019-04-23T11:59:25.732Z,98413.13
2019-04-23T12:09:54.992Z,98411.59
2019-04-23T12:12:26.830Z,98413.97
2019-04-23T12:14:39.148Z,98410.60
2019-04-23T12:29:30.413Z,98419.75
2019-04-23T12:32:01.825Z,98416.94
2019-04-23T12:34:25.799Z,98421.91
2019-04-23T12:36:46.661Z,98416.94
2019-04-23T12:39:21.481Z,98424.59
2019-04-23T12:41:45.512Z,98413.97
2019-04-23T12:44:19.437Z,98417.70
2019-04-23T12:46:46.199Z,98421.74
2019-04-23T12:51:48.699Z,98410.10
2019-04-23T12:53:57.933Z,98409.51
2019-04-23T12:56:32.008Z,98398.13
2019-04-23T12:58:45.169Z,98397.11
2019-04-23T13:01:14.131Z,98400.05
2019-04-23T13:03:40.899Z,98401.83
2019-04-23T13:06:11.471Z,98397.88
2019-04-23T13:11:08.013Z,98402.66
2019-04-23T13:15:53.248Z,98395.52
2019-04-23T13:18:31.887Z,98396.84
2019-04-23T13:20:41.804Z,98387.58
2019-04-23T13:25:54.279Z,98383.55
2019-04-23T13:28:21.433Z,98384.94
2019-04-23T13:33:26.774Z,98392.86
2019-04-23T13:35:53.393Z,98386.47
2019-04-23T13:40:39.290Z,98387.53
2019-04-23T13:43:01.146Z,98389.11
2019-04-23T13:48:00.399Z,98382.17
2019-04-23T13:50:34.592Z,98386.67
2019-04-23T13:55:09.179Z,98372.08
2019-04-23T14:00:09.421Z,98370.83
2019-04-23T14:05:04.747Z,98373.74
2019-04-23T14:07:38.378Z,98379.53
2019-04-23T14:12:31.930Z,98373.77
2019-04-23T14:15:12.467Z,98378.73
2019-04-23T14:17:38.230Z,98372.30
2019-04-23T14:19:53.524Z,98371.08
2019-04-23T14:22:31.299Z,98360.42
2019-04-23T14:24:53.157Z,98355.03
2019-04-23T14:27:14.946Z,98366.88
2019-04-23T14:29:38.865Z,98361.80
2019-04-23T14:32:08.772Z,98363.09
2019-04-23T14:34:30.469Z,98362.73
2019-04-23T14:36:59.515Z,98361.77
2019-04-23T14:39:25.512Z,98366.45
2019-04-23T14:41:53.932Z,98357.54
2019-04-23T14:46:54.866Z,98357.46
2019-04-23T14:49:24.656Z,98363.34
2019-04-23T14:51:51.619Z,98354.56
2019-04-23T14:54:15.818Z,98349.44
2019-04-23T14:56:44.883Z,98350.83
2019-04-23T15:01:36.311Z,98347.13
2019-04-23T15:03:55.282Z,98345.81
2019-04-23T15:11:27.611Z,98350.76
2019-04-23T15:16:22.329Z,98350.34
2019-04-23T15:21:42.907Z,98334.58
2019-04-23T15:23:51.415Z,98334.37
2019-04-23T15:28:10.151Z,98340.98
2019-04-23T15:31:02.478Z,98343.16
2019-04-23T15:36:12.951Z,98323.48
2019-04-23T15:38:37.699Z,98329.33
2019-04-23T15:40:53.921Z,98333.23
2019-04-23T15:45:44.499Z,98328.28
2019-04-23T15:48:12.038Z,98329.45
2019-04-23T15:50:37.649Z,98330.26
2019-04-23T15:55:28.300Z,98330.94
2019-04-23T16:00:19.249Z,98330.77
2019-04-23T16:02:20.866Z,98336.31
2019-04-23T16:04:48.960Z,98325.96
2019-04-23T16:07:31.476Z,98321.19
2019-04-23T16:12:31.391Z,98326.22
2019-04-23T16:15:07.804Z,98321.66
2019-04-23T16:17:28.899Z,98325.33
2019-04-23T16:20:25.518Z,98314.00
2019-04-23T16:25:17.321Z,98321.20
2019-04-23T16:27:26.045Z,98323.61
2019-04-23T16:32:38.040Z,98332.73
2019-04-23T16:35:12.876Z,98331.53
2019-04-23T16:37:27.393Z,98336.50
2019-04-23T16:40:01.850Z,98339.97
2019-04-23T16:42:24.882Z,98334.10
2019-04-23T16:45:02.793Z,98335.56
2019-04-23T16:47:21.711Z,98343.08
2019-04-23T16:49:47.246Z,98343.96
2019-04-23T16:52:07.819Z,98345.02
2019-04-23T16:54:39.109Z,98350.36
2019-04-23T16:59:54.293Z,98343.99
2019-04-23T17:02:03.614Z,98348.56
2019-04-23T17:04:24.821Z,98342.23
2019-04-23T17:06:53.496Z,98348.02
2019-04-23T17:09:22.045Z,98344.88
2019-04-23T17:11:41.734Z,98349.41
2019-04-23T17:14:13.570Z,98350.75
2019-04-23T17:16:40.114Z,98346.02
2019-04-23T17:19:10.410Z,98352.34
2019-04-23T17:21:29.845Z,98348.09
2019-04-23T17:24:08.085Z,98350.50
2019-04-23T17:26:25.666Z,98346.25
2019-04-23T17:28:54.325Z,98353.38
2019-04-23T17:31:30.836Z,98349.41
2019-04-23T17:36:28.562Z,98352.79
2019-04-23T17:39:01.354Z,98354.74
2019-04-23T17:44:01.433Z,98355.63
2019-04-23T17:48:40.293Z,98355.95
2019-04-23T17:51:17.721Z,98365.31
2019-04-23T17:53:40.460Z,98361.13
2019-04-23T17:56:26.249Z,98358.26
2019-04-23T17:58:37.228Z,98369.42
2019-04-23T18:01:17.046Z,98370.46
2019-04-23T18:03:46.025Z,98366.56
2019-04-23T18:08:27.714Z,98364.84
2019-04-23T18:10:56.300Z,98368.70
2019-04-23T18:13:21.068Z,98370.84
2019-04-23T18:15:45.251Z,98366.06
2019-04-23T18:18:10.086Z,98372.05
2019-04-23T18:20:56.121Z,98378.02
2019-04-23T18:23:10.016Z,98375.53
2019-04-23T18:25:51.838Z,98370.65
2019-04-23T18:28:10.415Z,98366.33
2019-04-23T18:30:56.689Z,98374.30
2019-04-23T18:33:56.694Z,98371.77
2019-04-23T18:35:44.608Z,98381.28
2019-04-23T18:41:00.958Z,98379.73
2019-04-23T18:43:20.181Z,98378.98
2019-04-23T18:48:11.066Z,98392.41
2019-04-23T18:50:48.348Z,98395.92
2019-04-23T18:53:09.776Z,98392.47
2019-04-23T18:55:46.572Z,98395.92
2019-04-23T18:58:03.886Z,98401.05
2019-04-23T19:00:39.484Z,98404.28
2019-04-23T19:03:21.792Z,98402.22
2019-04-23T19:06:10.055Z,98404.19
2019-04-23T19:08:48.964Z,98408.58
2019-04-23T19:11:31.917Z,98410.82
2019-04-23T19:13:44.585Z,98415.50
2019-04-23T19:16:13.100Z,98411.17
2019-04-23T19:18:45.154Z,98416.30
2019-04-23T19:21:10.803Z,98414.89
2019-04-23T19:23:42.844Z,98408.67
2019-04-23T19:25:54.615Z,98406.63
2019-04-23T19:28:41.402Z,98403.91
2019-04-23T19:31:06.267Z,98410.94
2019-04-23T19:33:36.660Z,98407.53
2019-04-23T19:36:04.493Z,98418.48
2019-04-23T19:38:23.954Z,98415.00
2019-04-23T19:40:51.196Z,98414.38
2019-04-23T19:43:11.956Z,98411.19
2019-04-23T19:48:11.480Z,98418.38
2019-04-23T19:50:40.630Z,98419.42
2019-04-23T19:55:24.113Z,98425.92
2019-04-23T19:57:55.304Z,98422.83
2019-04-23T20:00:17.110Z,98421.58
2019-04-23T20:05:13.709Z,98421.23
2019-04-23T20:07:52.232Z,98423.52
2019-04-23T20:09:56.880Z,98423.28
2019-04-23T20:12:38.683Z,98421.77
2019-04-23T20:14:56.245Z,98419.92
2019-04-23T20:19:48.311Z,98416.83
2019-04-23T20:22:29.201Z,98420.66
2019-04-23T20:30:14.423Z,98432.90
2019-04-23T20:34:59.089Z,98414.15
2019-04-23T20:37:29.401Z,98420.35
2019-04-23T20:39:50.799Z,98424.74
2019-04-23T20:44:50.816Z,98417.55
2019-04-23T20:47:11.468Z,98414.20
2019-04-23T20:52:04.746Z,98417.80
2019-04-23T20:54:44.656Z,98421.66
2019-04-23T20:57:22.980Z,98430.13
2019-04-23T20:59:49.897Z,98420.23
2019-04-23T21:02:34.349Z,98426.54
2019-04-23T21:05:01.395Z,98427.60
2019-04-23T21:07:22.141Z,98427.83
2019-04-23T21:09:51.522Z,98427.22
2019-04-23T21:12:16.183Z,98422.43
2019-04-23T21:14:48.408Z,98424.38
2019-04-23T21:17:07.410Z,98425.77
2019-04-23T21:19:48.618Z,98426.54
2019-04-23T21:22:02.561Z,98430.20
2019-04-23T21:24:27.478Z,98428.12
2019-04-23T21:27:07.347Z,98431.54
2019-04-23T21:29:36.419Z,98433.63
2019-04-23T21:31:48.502Z,98433.59
2019-04-23T21:36:44.505Z,98435.52
2019-04-23T21:39:24.645Z,98435.17
2019-04-23T21:46:58.778Z,98449.22
2019-04-23T21:49:50.689Z,98442.11
2019-04-23T21:51:56.451Z,98441.61
2019-04-23T21:54:07.943Z,98448.19
2019-04-23T21:56:42.969Z,98441.20
2019-04-23T22:06:40.054Z,98445.95
2019-04-23T22:18:58.613Z,98478.11
2019-04-23T22:21:15.339Z,98479.09
2019-04-23T22:23:52.629Z,98478.27
2019-04-23T22:26:16.803Z,98473.91
2019-04-23T22:28:43.512Z,98476.27
2019-04-23T22:31:04.051Z,98472.84
2019-04-23T22:33:26.868Z,98471.72
2019-04-23T22:35:55.639Z,98465.47
2019-04-23T22:38:18.737Z,98472.02
2019-04-23T22:40:50.717Z,98471.34
2019-04-23T22:45:43.103Z,98462.93
2019-04-23T22:50:38.484Z,98465.97
2019-04-23T22:53:01.543Z,98464.96
2019-04-23T22:55:27.666Z,98464.96
2019-04-23T23:03:01.240Z,98475.92
2019-04-23T23:05:29.033Z,98478.10
2019-04-23T23:07:56.241Z,98479.41
2019-04-23T23:10:28.358Z,98484.03
2019-04-23T23:12:53.322Z,98492.40
2019-04-23T23:15:15.967Z,98486.98
2019-04-23T23:17:45.555Z,98487.42
2019-04-23T23:20:15.693Z,98483.34
2019-04-23T23:22:31.487Z,98480.95
2019-04-23T23:25:04.715Z,98481.34
2019-04-23T23:27:24.693Z,98481.57
2019-04-23T23:29:58.118Z,98480.55
2019-04-23T23:32:24.440Z,98483.20
2019-04-23T23:35:00.766Z,98479.20
2019-04-23T23:37:12.144Z,98485.34
2019-04-23T23:39:40.667Z,98482.00
2019-04-23T23:42:18.114Z,98487.23
2019-04-23T23:47:03.192Z,98480.91
2019-04-23T23:49:28.447Z,98480.29
2019-04-23T23:51:55.349Z,98481.38
2019-04-23T23:56:52.311Z,98487.52
2019-04-23T23:59:26.974Z,98485.86
